BAW283 EGLL-KLAX
Flight info
| Callsign | BAW283 |
|---|---|
| Flight time | N/A |
| Altitude | 36000 |
| Route | CPT L9 BUCGO DCT FELCA DCT NICXI DCT BAKUR DCT BUNED DCT PIKIL/M082F360 DCT 5730N02000W 5930N03000W 60N040W 60N050W/M082F380 DCT PIDSO N950B MUSLO/N0471F380 N950B RODBO DCT TUNNI DCT LENUT DCT GOSEP DCT YTL/N0466F400 DCT LACTO DCT KAVKI DCT DEBMA DCT OGSIQ DCT DIK DCT KUBLD DCT BPI J713 TCH DCT PICHO Q842 WINEN/N0474F410 Q73 EEVUN/N0467F400 Q73 HAKMN ANJLL4 |
| Aircraft | B772/H-SDE2E3FGHIJ5LORVWXY/LB1D1 |
Departure
| Time | N/A |
|---|---|
| Airport | London Heathrow Airport (EGLL) |
Arrival
| Time | 2026-04-23 17:08 |
|---|---|
| Airport | Los Angeles International Airport (KLAX) |
| Time | Latitude | Longitude | Altitude | Speed | Heading |
|---|---|---|---|---|---|
| 2026-04-23 13:50 | 50.25593 | -95.90646 | 37464 ft | 392 kts | 233° |
| 2026-04-23 13:50 | 50.12911 | -96.18255 | 37440 ft | 408 kts | 232° |
| 2026-04-23 13:51 | 50.03562 | -96.38433 | 37417 ft | 406 kts | 232° |
| 2026-04-23 13:51 | 49.97936 | -96.50504 | 37401 ft | 396 kts | 231° |
| 2026-04-23 13:52 | 49.91369 | -96.64510 | 37408 ft | 408 kts | 231° |
| 2026-04-23 13:52 | 49.85512 | -96.76950 | 37383 ft | 414 kts | 231° |
| 2026-04-23 13:53 | 49.81536 | -96.85370 | 37387 ft | 406 kts | 230° |
| 2026-04-23 13:53 | 49.78205 | -96.92393 | 37370 ft | 405 kts | 230° |
| 2026-04-23 13:54 | 49.74862 | -96.99421 | 37352 ft | 406 kts | 230° |
| 2026-04-23 13:54 | 49.71535 | -97.06401 | 37369 ft | 407 kts | 230° |
| 2026-04-23 13:55 | 49.68163 | -97.13458 | 37369 ft | 409 kts | 230° |
| 2026-04-23 13:55 | 49.64770 | -97.20540 | 37357 ft | 411 kts | 230° |
| 2026-04-23 13:56 | 49.61385 | -97.27591 | 37364 ft | 412 kts | 230° |
| 2026-04-23 13:56 | 49.57965 | -97.34687 | 37353 ft | 412 kts | 230° |
| 2026-04-23 13:57 | 49.54410 | -97.41617 | 37349 ft | 412 kts | 228° |
| 2026-04-23 13:57 | 49.50803 | -97.48455 | 37349 ft | 411 kts | 228° |
| 2026-04-23 13:58 | 49.47210 | -97.55295 | 37354 ft | 411 kts | 228° |
| 2026-04-23 13:58 | 49.43625 | -97.62136 | 37390 ft | 411 kts | 227° |
| 2026-04-23 13:59 | 49.40035 | -97.68979 | 37363 ft | 411 kts | 227° |
| 2026-04-23 13:59 | 49.36451 | -97.75794 | 37353 ft | 410 kts | 227° |
| 2026-04-23 14:00 | 49.33470 | -97.81448 | 37351 ft | 409 kts | 227° |
| 2026-04-23 14:00 | 49.29283 | -97.89369 | 37352 ft | 409 kts | 227° |
| 2026-04-23 14:01 | 49.25716 | -97.96102 | 37352 ft | 408 kts | 227° |
| 2026-04-23 14:01 | 49.22317 | -98.02938 | 37350 ft | 411 kts | 231° |
| 2026-04-23 14:02 | 49.19120 | -98.10188 | 37358 ft | 411 kts | 231° |
| 2026-04-23 14:02 | 49.15914 | -98.17446 | 37354 ft | 412 kts | 231° |
| 2026-04-23 14:03 | 49.12692 | -98.24703 | 37355 ft | 413 kts | 231° |
| 2026-04-23 14:03 | 49.09450 | -98.31975 | 37355 ft | 414 kts | 231° |
| 2026-04-23 14:04 | 49.06198 | -98.39246 | 37349 ft | 415 kts | 231° |
| 2026-04-23 14:04 | 49.02950 | -98.46489 | 37351 ft | 416 kts | 231° |
| 2026-04-23 14:05 | 48.99683 | -98.53754 | 37361 ft | 416 kts | 231° |
| 2026-04-23 14:05 | 48.96404 | -98.61029 | 37348 ft | 416 kts | 231° |
| 2026-04-23 14:06 | 48.93125 | -98.68282 | 37356 ft | 415 kts | 231° |
| 2026-04-23 14:06 | 48.89870 | -98.75462 | 37358 ft | 415 kts | 231° |
| 2026-04-23 14:07 | 48.86585 | -98.82687 | 37369 ft | 416 kts | 231° |
| 2026-04-23 14:07 | 48.81629 | -98.93553 | 37366 ft | 418 kts | 231° |
| 2026-04-23 14:08 | 48.78351 | -99.00716 | 37366 ft | 419 kts | 231° |
| 2026-04-23 14:08 | 48.75020 | -99.07977 | 37365 ft | 420 kts | 231° |
| 2026-04-23 14:09 | 48.71699 | -99.15196 | 37353 ft | 420 kts | 231° |
| 2026-04-23 14:09 | 48.68346 | -99.22464 | 37364 ft | 422 kts | 231° |
| 2026-04-23 14:10 | 48.64967 | -99.29768 | 37357 ft | 424 kts | 231° |
| 2026-04-23 14:10 | 48.61570 | -99.37094 | 37354 ft | 426 kts | 231° |
| 2026-04-23 14:11 | 48.58161 | -99.44423 | 37349 ft | 427 kts | 231° |
| 2026-04-23 14:11 | 48.54740 | -99.51760 | 37349 ft | 427 kts | 231° |
| 2026-04-23 14:12 | 48.51325 | -99.59063 | 37351 ft | 429 kts | 230° |
| 2026-04-23 14:12 | 48.47873 | -99.66425 | 37372 ft | 430 kts | 230° |
| 2026-04-23 14:13 | 48.44406 | -99.73801 | 37374 ft | 432 kts | 230° |
| 2026-04-23 14:13 | 48.40924 | -99.81187 | 37389 ft | 433 kts | 230° |
| 2026-04-23 14:14 | 48.37424 | -99.88590 | 37396 ft | 434 kts | 230° |
| 2026-04-23 14:14 | 48.33918 | -99.95988 | 37402 ft | 436 kts | 230° |
| 2026-04-23 14:15 | 48.30449 | -100.03286 | 37399 ft | 438 kts | 230° |
| 2026-04-23 14:15 | 48.26872 | -100.10789 | 37390 ft | 440 kts | 230° |
| 2026-04-23 14:16 | 48.23317 | -100.18229 | 37375 ft | 442 kts | 230° |
| 2026-04-23 14:16 | 48.19724 | -100.25727 | 37357 ft | 443 kts | 230° |
| 2026-04-23 14:17 | 48.16119 | -100.33230 | 37352 ft | 443 kts | 230° |
| 2026-04-23 14:17 | 48.12512 | -100.40716 | 37339 ft | 443 kts | 230° |
| 2026-04-23 14:18 | 48.08923 | -100.48144 | 37321 ft | 442 kts | 230° |
| 2026-04-23 14:18 | 48.05316 | -100.55590 | 37327 ft | 441 kts | 230° |
| 2026-04-23 14:19 | 48.01723 | -100.62987 | 37319 ft | 439 kts | 230° |
| 2026-04-23 14:19 | 47.98134 | -100.70352 | 37332 ft | 439 kts | 231° |
| 2026-04-23 14:20 | 47.94532 | -100.77726 | 37334 ft | 440 kts | 230° |
| 2026-04-23 14:20 | 47.90923 | -100.85092 | 37309 ft | 440 kts | 230° |
| 2026-04-23 14:21 | 47.87307 | -100.92457 | 37334 ft | 440 kts | 230° |
| 2026-04-23 14:21 | 47.83710 | -100.99761 | 37338 ft | 440 kts | 230° |
| 2026-04-23 14:22 | 47.80126 | -101.07020 | 37345 ft | 442 kts | 230° |
| 2026-04-23 14:22 | 47.76482 | -101.14381 | 37362 ft | 443 kts | 230° |
| 2026-04-23 14:23 | 47.72823 | -101.21752 | 37376 ft | 443 kts | 230° |
| 2026-04-23 14:23 | 47.69148 | -101.29135 | 37379 ft | 444 kts | 230° |
| 2026-04-23 14:24 | 47.65467 | -101.36512 | 37391 ft | 445 kts | 230° |
| 2026-04-23 14:24 | 47.61780 | -101.43879 | 37393 ft | 445 kts | 230° |
| 2026-04-23 14:25 | 47.58088 | -101.51239 | 37407 ft | 444 kts | 230° |
| 2026-04-23 14:25 | 47.54414 | -101.58541 | 37418 ft | 444 kts | 230° |
| 2026-04-23 14:26 | 47.50724 | -101.65859 | 37425 ft | 443 kts | 230° |
| 2026-04-23 14:26 | 47.47038 | -101.73149 | 37430 ft | 442 kts | 230° |
| 2026-04-23 14:27 | 47.43345 | -101.80434 | 37440 ft | 441 kts | 230° |
| 2026-04-23 14:27 | 47.39461 | -101.87412 | 37422 ft | 437 kts | 226° |
| 2026-04-23 14:28 | 47.35472 | -101.94181 | 37426 ft | 437 kts | 226° |
| 2026-04-23 14:28 | 47.31556 | -102.00820 | 37426 ft | 437 kts | 226° |
| 2026-04-23 14:29 | 47.27573 | -102.07587 | 37424 ft | 437 kts | 226° |
| 2026-04-23 14:29 | 47.23590 | -102.14353 | 37424 ft | 437 kts | 226° |
| 2026-04-23 14:30 | 47.19600 | -102.21116 | 37435 ft | 437 kts | 226° |
| 2026-04-23 14:30 | 47.15601 | -102.27876 | 37434 ft | 438 kts | 226° |
| 2026-04-23 14:31 | 47.12272 | -102.33490 | 37425 ft | 438 kts | 226° |
| 2026-04-23 14:31 | 47.08261 | -102.40238 | 37439 ft | 439 kts | 226° |
| 2026-04-23 14:32 | 47.04231 | -102.47001 | 37456 ft | 440 kts | 226° |
| 2026-04-23 14:32 | 47.00198 | -102.53754 | 37472 ft | 441 kts | 226° |
| 2026-04-23 14:33 | 46.96182 | -102.60461 | 37484 ft | 441 kts | 226° |
| 2026-04-23 14:33 | 46.92128 | -102.67218 | 37498 ft | 442 kts | 226° |
| 2026-04-23 14:34 | 46.88066 | -102.73971 | 37495 ft | 442 kts | 226° |
| 2026-04-23 14:34 | 46.84235 | -102.81014 | 37509 ft | 445 kts | 232° |
| 2026-04-23 14:35 | 46.80757 | -102.88488 | 37505 ft | 445 kts | 233° |
| 2026-04-23 14:35 | 46.77275 | -102.95966 | 37506 ft | 444 kts | 232° |
| 2026-04-23 14:36 | 46.73841 | -103.03285 | 37503 ft | 444 kts | 232° |
| 2026-04-23 14:36 | 46.70338 | -103.10708 | 37518 ft | 444 kts | 232° |
| 2026-04-23 14:37 | 46.66822 | -103.18133 | 37504 ft | 444 kts | 232° |
| 2026-04-23 14:37 | 46.63311 | -103.25530 | 37518 ft | 444 kts | 232° |
| 2026-04-23 14:38 | 46.59817 | -103.32871 | 37518 ft | 444 kts | 232° |
| 2026-04-23 14:38 | 46.56297 | -103.40248 | 37537 ft | 443 kts | 232° |
| 2026-04-23 14:39 | 46.52767 | -103.47625 | 37545 ft | 444 kts | 232° |
| 2026-04-23 14:39 | 46.49238 | -103.54983 | 37552 ft | 445 kts | 232° |
| 2026-04-23 14:40 | 46.45712 | -103.62314 | 37553 ft | 446 kts | 231° |
| 2026-04-23 14:40 | 46.42156 | -103.69686 | 37571 ft | 447 kts | 232° |
| 2026-04-23 14:41 | 46.38588 | -103.77065 | 37607 ft | 446 kts | 232° |
| 2026-04-23 14:41 | 46.35008 | -103.84449 | 37594 ft | 448 kts | 232° |
| 2026-04-23 14:42 | 46.31410 | -103.91851 | 37598 ft | 450 kts | 232° |
| 2026-04-23 14:42 | 46.27794 | -103.99270 | 37598 ft | 451 kts | 233° |
| 2026-04-23 14:43 | 46.24240 | -104.06546 | 37637 ft | 452 kts | 232° |
| 2026-04-23 14:43 | 46.20608 | -104.13964 | 37658 ft | 454 kts | 231° |
| 2026-04-23 14:44 | 46.16938 | -104.21432 | 37664 ft | 457 kts | 233° |
| 2026-04-23 14:44 | 46.13239 | -104.28940 | 37645 ft | 459 kts | 232° |
| 2026-04-23 14:45 | 46.09550 | -104.36413 | 37653 ft | 454 kts | 231° |
| 2026-04-23 14:45 | 46.05895 | -104.43797 | 37673 ft | 453 kts | 232° |
| 2026-04-23 14:46 | 46.02209 | -104.51217 | 37682 ft | 458 kts | 233° |
| 2026-04-23 14:46 | 45.98515 | -104.58638 | 37682 ft | 460 kts | 233° |
| 2026-04-23 14:47 | 45.94810 | -104.66065 | 37676 ft | 459 kts | 233° |
| 2026-04-23 14:47 | 45.91097 | -104.73486 | 37684 ft | 455 kts | 233° |
| 2026-04-23 14:48 | 45.87420 | -104.80813 | 37697 ft | 449 kts | 234° |
| 2026-04-23 14:48 | 45.83776 | -104.88057 | 37700 ft | 448 kts | 234° |
| 2026-04-23 14:49 | 45.80109 | -104.95330 | 37706 ft | 451 kts | 234° |
| 2026-04-23 14:49 | 45.76458 | -105.02552 | 37699 ft | 456 kts | 234° |
| 2026-04-23 14:50 | 45.72733 | -105.09900 | 37707 ft | 455 kts | 234° |
| 2026-04-23 14:50 | 45.69037 | -105.17174 | 37714 ft | 449 kts | 234° |
| 2026-04-23 14:51 | 45.65378 | -105.24356 | 37712 ft | 450 kts | 234° |
| 2026-04-23 14:51 | 45.61688 | -105.31580 | 37710 ft | 450 kts | 234° |
| 2026-04-23 14:52 | 45.57984 | -105.38814 | 37715 ft | 451 kts | 234° |
| 2026-04-23 14:52 | 45.54270 | -105.46049 | 37723 ft | 452 kts | 234° |
| 2026-04-23 14:53 | 45.50545 | -105.53284 | 37724 ft | 452 kts | 234° |
| 2026-04-23 14:53 | 45.46839 | -105.60467 | 37731 ft | 451 kts | 234° |
| 2026-04-23 14:54 | 45.43124 | -105.67651 | 37729 ft | 450 kts | 234° |
| 2026-04-23 14:54 | 45.39414 | -105.74807 | 37736 ft | 448 kts | 234° |
| 2026-04-23 14:55 | 45.35714 | -105.81927 | 37740 ft | 447 kts | 233° |
| 2026-04-23 14:55 | 45.31784 | -105.88768 | 37752 ft | 447 kts | 230° |
| 2026-04-23 14:56 | 45.27716 | -105.95467 | 37756 ft | 447 kts | 230° |
| 2026-04-23 14:56 | 45.23697 | -106.02072 | 37761 ft | 448 kts | 230° |
| 2026-04-23 14:57 | 45.19630 | -106.08774 | 37755 ft | 448 kts | 230° |
| 2026-04-23 14:57 | 45.15587 | -106.15439 | 37757 ft | 448 kts | 230° |
| 2026-04-23 14:58 | 45.11527 | -106.22122 | 37762 ft | 447 kts | 230° |
| 2026-04-23 14:58 | 45.07471 | -106.28779 | 37765 ft | 446 kts | 230° |
| 2026-04-23 14:59 | 45.03415 | -106.35422 | 37765 ft | 446 kts | 230° |
| 2026-04-23 14:59 | 44.99368 | -106.42033 | 37773 ft | 446 kts | 230° |
| 2026-04-23 15:00 | 44.95303 | -106.48658 | 37777 ft | 446 kts | 230° |
| 2026-04-23 15:00 | 44.91258 | -106.55235 | 37771 ft | 446 kts | 230° |
| 2026-04-23 15:01 | 44.87197 | -106.61821 | 37765 ft | 444 kts | 230° |
| 2026-04-23 15:01 | 44.83136 | -106.68394 | 37775 ft | 444 kts | 229° |
| 2026-04-23 15:02 | 44.79066 | -106.74965 | 37777 ft | 445 kts | 229° |
| 2026-04-23 15:02 | 44.74988 | -106.81533 | 37774 ft | 445 kts | 229° |
| 2026-04-23 15:03 | 44.70903 | -106.88099 | 37795 ft | 446 kts | 229° |
| 2026-04-23 15:03 | 44.66812 | -106.94656 | 37803 ft | 446 kts | 229° |
| 2026-04-23 15:04 | 44.62792 | -107.01087 | 37801 ft | 447 kts | 229° |
| 2026-04-23 15:04 | 44.58675 | -107.07657 | 37790 ft | 448 kts | 229° |
| 2026-04-23 15:05 | 44.54558 | -107.14214 | 37784 ft | 448 kts | 229° |
| 2026-04-23 15:05 | 44.50426 | -107.20775 | 37772 ft | 448 kts | 229° |
| 2026-04-23 15:06 | 44.46315 | -107.27292 | 37766 ft | 448 kts | 229° |
| 2026-04-23 15:06 | 44.42181 | -107.33828 | 37772 ft | 448 kts | 229° |
| 2026-04-23 15:07 | 44.38046 | -107.40351 | 37771 ft | 445 kts | 229° |
| 2026-04-23 15:07 | 44.33966 | -107.46772 | 37778 ft | 444 kts | 230° |
| 2026-04-23 15:08 | 44.29852 | -107.53232 | 37780 ft | 445 kts | 229° |
| 2026-04-23 15:09 | 44.23668 | -107.62916 | 37776 ft | 446 kts | 229° |
| 2026-04-23 15:09 | 44.19528 | -107.69379 | 37771 ft | 447 kts | 229° |
| 2026-04-23 15:10 | 44.16085 | -107.74744 | 37771 ft | 447 kts | 230° |
| 2026-04-23 15:10 | 44.11261 | -107.82242 | 37814 ft | 447 kts | 230° |
| 2026-04-23 15:11 | 44.07104 | -107.88689 | 37831 ft | 447 kts | 230° |
| 2026-04-23 15:11 | 44.02940 | -107.95132 | 37830 ft | 448 kts | 230° |
| 2026-04-23 15:12 | 43.98827 | -108.01480 | 37830 ft | 447 kts | 230° |
| 2026-04-23 15:12 | 43.94658 | -108.07902 | 37833 ft | 447 kts | 230° |
| 2026-04-23 15:13 | 43.90496 | -108.14298 | 37820 ft | 446 kts | 230° |
| 2026-04-23 15:13 | 43.86335 | -108.20677 | 37844 ft | 446 kts | 230° |
| 2026-04-23 15:14 | 43.82188 | -108.27023 | 37844 ft | 447 kts | 230° |
| 2026-04-23 15:14 | 43.78000 | -108.33415 | 37852 ft | 447 kts | 230° |
| 2026-04-23 15:15 | 43.73823 | -108.39776 | 37858 ft | 446 kts | 230° |
| 2026-04-23 15:15 | 43.69647 | -108.46121 | 37859 ft | 445 kts | 230° |
| 2026-04-23 15:16 | 43.65478 | -108.52443 | 37851 ft | 445 kts | 230° |
| 2026-04-23 15:16 | 43.61305 | -108.58755 | 37841 ft | 445 kts | 230° |
| 2026-04-23 15:17 | 43.57830 | -108.64003 | 37786 ft | 446 kts | 230° |
| 2026-04-23 15:17 | 43.53637 | -108.70321 | 37787 ft | 446 kts | 230° |
| 2026-04-23 15:18 | 43.48751 | -108.77665 | 37772 ft | 447 kts | 229° |
| 2026-04-23 15:18 | 43.45243 | -108.82926 | 37774 ft | 448 kts | 230° |
| 2026-04-23 15:19 | 43.40993 | -108.89288 | 37770 ft | 457 kts | 229° |
| 2026-04-23 15:19 | 43.36630 | -108.95808 | 37776 ft | 470 kts | 229° |
| 2026-04-23 15:20 | 43.32199 | -109.02411 | 37776 ft | 480 kts | 229° |
| 2026-04-23 15:20 | 43.27633 | -109.09197 | 37777 ft | 487 kts | 229° |
| 2026-04-23 15:21 | 43.23048 | -109.15991 | 37773 ft | 487 kts | 229° |
| 2026-04-23 15:21 | 43.18476 | -109.22752 | 37782 ft | 480 kts | 229° |
| 2026-04-23 15:22 | 43.13942 | -109.29443 | 37824 ft | 478 kts | 229° |
| 2026-04-23 15:22 | 43.09417 | -109.36107 | 37824 ft | 478 kts | 229° |
| 2026-04-23 15:23 | 43.04885 | -109.42764 | 37866 ft | 477 kts | 229° |
| 2026-04-23 15:23 | 43.00348 | -109.49413 | 37863 ft | 478 kts | 229° |
| 2026-04-23 15:24 | 42.95831 | -109.56017 | 37912 ft | 479 kts | 229° |
| 2026-04-23 15:24 | 42.91261 | -109.62687 | 37910 ft | 481 kts | 229° |
| 2026-04-23 15:25 | 42.86675 | -109.69362 | 37969 ft | 482 kts | 229° |
| 2026-04-23 15:25 | 42.82099 | -109.76008 | 37952 ft | 484 kts | 229° |
| 2026-04-23 15:26 | 42.77480 | -109.82698 | 37965 ft | 485 kts | 229° |
| 2026-04-23 15:26 | 42.72850 | -109.89390 | 37962 ft | 486 kts | 229° |
| 2026-04-23 15:27 | 42.68214 | -109.96077 | 37958 ft | 486 kts | 229° |
| 2026-04-23 15:27 | 42.63624 | -110.02683 | 37961 ft | 486 kts | 229° |
| 2026-04-23 15:28 | 42.58971 | -110.09358 | 37962 ft | 487 kts | 228° |
| 2026-04-23 15:28 | 42.53922 | -110.15508 | 37960 ft | 489 kts | 222° |
| 2026-04-23 15:29 | 42.48648 | -110.21336 | 37957 ft | 489 kts | 222° |
| 2026-04-23 15:29 | 42.43404 | -110.27127 | 37944 ft | 489 kts | 222° |
| 2026-04-23 15:30 | 42.38143 | -110.32970 | 37911 ft | 489 kts | 222° |
| 2026-04-23 15:30 | 42.32891 | -110.38814 | 37931 ft | 488 kts | 222° |
| 2026-04-23 15:31 | 42.27644 | -110.44642 | 37932 ft | 488 kts | 222° |
| 2026-04-23 15:31 | 42.22394 | -110.50455 | 37962 ft | 487 kts | 222° |
| 2026-04-23 15:32 | 42.17152 | -110.56248 | 37960 ft | 487 kts | 222° |
| 2026-04-23 15:32 | 42.11906 | -110.62032 | 37980 ft | 486 kts | 222° |
| 2026-04-23 15:33 | 42.06670 | -110.67793 | 37976 ft | 486 kts | 222° |
| 2026-04-23 15:33 | 42.01465 | -110.73505 | 37976 ft | 486 kts | 222° |
| 2026-04-23 15:33 | 41.98866 | -110.76355 | 37165 ft | 486 kts | 220° |
| 2026-04-23 15:34 | 41.96238 | -110.79233 | 37437 ft | 487 kts | 219° |
| 2026-04-23 15:34 | 41.93603 | -110.82112 | 37679 ft | 489 kts | 219° |
| 2026-04-23 15:34 | 41.90951 | -110.85009 | 37832 ft | 493 kts | 219° |
| 2026-04-23 15:35 | 41.85583 | -110.90861 | 37967 ft | 501 kts | 219° |
| 2026-04-23 15:35 | 41.80125 | -110.96798 | 38006 ft | 509 kts | 219° |
| 2026-04-23 15:36 | 41.74660 | -111.02731 | 38010 ft | 515 kts | 219° |
| 2026-04-23 15:36 | 41.69068 | -111.08788 | 38006 ft | 517 kts | 219° |
| 2026-04-23 15:37 | 41.63556 | -111.14744 | 37988 ft | 508 kts | 219° |
| 2026-04-23 15:37 | 41.58066 | -111.20661 | 38000 ft | 506 kts | 219° |
| 2026-04-23 15:38 | 41.52592 | -111.26541 | 38687 ft | 495 kts | 222° |
| 2026-04-23 15:38 | 41.49955 | -111.29365 | 38415 ft | 479 kts | 222° |
| 2026-04-23 15:38 | 41.47383 | -111.32122 | 38228 ft | 471 kts | 223° |
| 2026-04-23 15:39 | 41.42238 | -111.37647 | 38089 ft | 479 kts | 222° |
| 2026-04-23 15:39 | 41.37009 | -111.43245 | 38033 ft | 483 kts | 222° |
| 2026-04-23 15:40 | 41.31788 | -111.48812 | 38044 ft | 483 kts | 222° |
| 2026-04-23 15:40 | 41.26534 | -111.54402 | 38049 ft | 483 kts | 222° |
| 2026-04-23 15:41 | 41.21286 | -111.59974 | 38060 ft | 482 kts | 222° |
| 2026-04-23 15:41 | 41.16040 | -111.65533 | 38064 ft | 481 kts | 222° |
| 2026-04-23 15:42 | 41.10813 | -111.71062 | 38063 ft | 480 kts | 223° |
| 2026-04-23 15:42 | 41.05580 | -111.76585 | 38067 ft | 480 kts | 223° |
| 2026-04-23 15:43 | 41.00397 | -111.82043 | 38064 ft | 478 kts | 223° |
| 2026-04-23 15:43 | 40.95191 | -111.87518 | 38085 ft | 478 kts | 223° |
| 2026-04-23 15:44 | 40.89984 | -111.92982 | 38088 ft | 477 kts | 223° |
| 2026-04-23 15:44 | 40.84682 | -111.98281 | 38087 ft | 479 kts | 218° |
| 2026-04-23 15:45 | 40.78883 | -112.02534 | 38095 ft | 483 kts | 212° |
| 2026-04-23 15:45 | 40.72938 | -112.06552 | 38056 ft | 483 kts | 212° |
| 2026-04-23 15:46 | 40.66968 | -112.10612 | 38079 ft | 482 kts | 212° |
| 2026-04-23 15:46 | 40.61008 | -112.14692 | 38080 ft | 482 kts | 212° |
| 2026-04-23 15:47 | 40.55062 | -112.18764 | 38095 ft | 482 kts | 212° |
| 2026-04-23 15:47 | 40.49104 | -112.22839 | 38094 ft | 482 kts | 212° |
| 2026-04-23 15:48 | 40.43146 | -112.26903 | 38083 ft | 482 kts | 212° |
| 2026-04-23 15:48 | 40.37221 | -112.30935 | 38070 ft | 482 kts | 212° |
| 2026-04-23 15:49 | 40.31262 | -112.34981 | 38060 ft | 482 kts | 212° |
| 2026-04-23 15:49 | 40.25303 | -112.39019 | 38055 ft | 481 kts | 212° |
| 2026-04-23 15:50 | 40.19354 | -112.43044 | 38058 ft | 481 kts | 212° |
| 2026-04-23 15:50 | 40.13400 | -112.47064 | 38060 ft | 480 kts | 213° |
| 2026-04-23 15:51 | 40.07502 | -112.51038 | 38066 ft | 479 kts | 213° |
| 2026-04-23 15:51 | 40.01574 | -112.55026 | 38055 ft | 478 kts | 212° |
| 2026-04-23 15:52 | 39.95588 | -112.58868 | 38062 ft | 482 kts | 208° |
| 2026-04-23 15:52 | 39.89296 | -112.61832 | 38057 ft | 484 kts | 205° |
| 2026-04-23 15:53 | 39.82932 | -112.64714 | 38063 ft | 484 kts | 205° |
| 2026-04-23 15:53 | 39.76575 | -112.67621 | 38075 ft | 484 kts | 205° |
| 2026-04-23 15:54 | 39.70221 | -112.70550 | 38049 ft | 484 kts | 205° |
| 2026-04-23 15:54 | 39.63870 | -112.73478 | 38064 ft | 484 kts | 205° |
| 2026-04-23 15:55 | 39.57531 | -112.76395 | 38066 ft | 483 kts | 205° |
| 2026-04-23 15:55 | 39.51224 | -112.79290 | 38064 ft | 483 kts | 205° |
| 2026-04-23 15:56 | 39.44891 | -112.82190 | 38058 ft | 482 kts | 206° |
| 2026-04-23 15:56 | 39.38575 | -112.85076 | 38065 ft | 480 kts | 206° |
| 2026-04-23 15:57 | 39.32273 | -112.87952 | 38038 ft | 479 kts | 206° |
| 2026-04-23 15:57 | 39.25986 | -112.90815 | 38031 ft | 479 kts | 206° |
| 2026-04-23 15:58 | 39.19711 | -112.93667 | 38021 ft | 477 kts | 206° |
| 2026-04-23 15:58 | 39.13447 | -112.96509 | 38029 ft | 476 kts | 206° |
| 2026-04-23 15:59 | 39.07238 | -112.99321 | 38035 ft | 476 kts | 206° |
| 2026-04-23 15:59 | 39.01075 | -113.02108 | 38040 ft | 475 kts | 206° |
| 2026-04-23 16:00 | 38.94848 | -113.04917 | 38033 ft | 474 kts | 207° |
| 2026-04-23 16:00 | 38.88620 | -113.07721 | 38034 ft | 474 kts | 207° |
| 2026-04-23 16:01 | 38.82399 | -113.10518 | 38029 ft | 474 kts | 207° |
| 2026-04-23 16:01 | 38.76183 | -113.13307 | 37990 ft | 473 kts | 207° |
| 2026-04-23 16:02 | 38.69989 | -113.16082 | 38024 ft | 470 kts | 207° |
| 2026-04-23 16:02 | 38.63842 | -113.18830 | 38068 ft | 469 kts | 207° |
| 2026-04-23 16:03 | 38.57676 | -113.21576 | 38069 ft | 469 kts | 207° |
| 2026-04-23 16:03 | 38.52546 | -113.23859 | 38051 ft | 468 kts | 208° |
| 2026-04-23 16:04 | 38.46405 | -113.26588 | 38078 ft | 467 kts | 208° |
| 2026-04-23 16:04 | 38.40268 | -113.29314 | 38083 ft | 468 kts | 208° |
| 2026-04-23 16:05 | 38.34115 | -113.32041 | 38062 ft | 468 kts | 208° |
| 2026-04-23 16:05 | 38.27955 | -113.34764 | 38043 ft | 468 kts | 208° |
| 2026-04-23 16:06 | 38.21826 | -113.37468 | 38023 ft | 468 kts | 208° |
| 2026-04-23 16:06 | 38.15672 | -113.40177 | 38032 ft | 468 kts | 208° |
| 2026-04-23 16:07 | 38.09504 | -113.42894 | 38000 ft | 469 kts | 208° |
| 2026-04-23 16:07 | 38.03350 | -113.45595 | 38004 ft | 467 kts | 208° |
| 2026-04-23 16:08 | 37.97216 | -113.48284 | 38020 ft | 466 kts | 208° |
| 2026-04-23 16:08 | 37.90959 | -113.50660 | 38034 ft | 476 kts | 201° |
| 2026-04-23 16:09 | 37.84476 | -113.52206 | 38037 ft | 478 kts | 200° |
| 2026-04-23 16:09 | 37.77906 | -113.53736 | 38035 ft | 476 kts | 201° |
| 2026-04-23 16:10 | 37.71438 | -113.55276 | 38037 ft | 475 kts | 201° |
| 2026-04-23 16:10 | 37.64946 | -113.56839 | 38039 ft | 475 kts | 201° |
| 2026-04-23 16:11 | 37.58442 | -113.58407 | 37980 ft | 475 kts | 201° |
| 2026-04-23 16:11 | 37.51958 | -113.59962 | 38024 ft | 474 kts | 201° |
| 2026-04-23 16:12 | 37.45476 | -113.61515 | 38029 ft | 473 kts | 201° |
| 2026-04-23 16:12 | 37.39007 | -113.63063 | 38025 ft | 472 kts | 201° |
| 2026-04-23 16:13 | 37.32556 | -113.64601 | 38020 ft | 471 kts | 201° |
| 2026-04-23 16:13 | 37.22952 | -113.66886 | 38028 ft | 469 kts | 201° |
| 2026-04-23 16:14 | 37.16558 | -113.68407 | 38043 ft | 468 kts | 201° |
| 2026-04-23 16:14 | 37.10163 | -113.69931 | 38039 ft | 468 kts | 201° |
| 2026-04-23 16:15 | 37.03848 | -113.71683 | 38060 ft | 459 kts | 207° |
| 2026-04-23 16:15 | 36.97949 | -113.74456 | 38061 ft | 452 kts | 211° |
| 2026-04-23 16:16 | 36.92082 | -113.77355 | 38027 ft | 453 kts | 211° |
| 2026-04-23 16:16 | 36.86244 | -113.80195 | 37988 ft | 453 kts | 211° |
| 2026-04-23 16:17 | 36.80376 | -113.83030 | 38010 ft | 451 kts | 211° |
| 2026-04-23 16:17 | 36.74508 | -113.85857 | 37999 ft | 452 kts | 211° |
| 2026-04-23 16:18 | 36.68646 | -113.88682 | 37977 ft | 452 kts | 211° |
| 2026-04-23 16:18 | 36.62809 | -113.91579 | 37967 ft | 449 kts | 212° |
| 2026-04-23 16:19 | 36.57116 | -113.94789 | 37977 ft | 449 kts | 213° |
| 2026-04-23 16:19 | 36.51460 | -113.97981 | 37985 ft | 450 kts | 213° |
| 2026-04-23 16:20 | 36.45799 | -114.01111 | 37977 ft | 450 kts | 213° |
| 2026-04-23 16:20 | 36.40142 | -114.04400 | 37974 ft | 444 kts | 218° |
| 2026-04-23 16:21 | 36.34917 | -114.08389 | 37962 ft | 439 kts | 220° |
| 2026-04-23 16:21 | 36.29721 | -114.12406 | 37973 ft | 439 kts | 220° |
| 2026-04-23 16:22 | 36.24553 | -114.16366 | 37981 ft | 439 kts | 219° |
| 2026-04-23 16:22 | 36.19342 | -114.20343 | 37970 ft | 440 kts | 219° |
| 2026-04-23 16:23 | 36.14123 | -114.24321 | 37956 ft | 440 kts | 219° |
| 2026-04-23 16:23 | 36.09134 | -114.28603 | 37938 ft | 432 kts | 227° |
| 2026-04-23 16:24 | 36.04852 | -114.33575 | 37955 ft | 413 kts | 235° |
| 2026-04-23 16:24 | 36.01068 | -114.38847 | 37949 ft | 412 kts | 235° |
| 2026-04-23 16:25 | 35.97264 | -114.44156 | 37969 ft | 412 kts | 235° |
| 2026-04-23 16:25 | 35.93447 | -114.49453 | 37989 ft | 414 kts | 234° |
| 2026-04-23 16:26 | 35.89612 | -114.54751 | 38004 ft | 414 kts | 234° |
| 2026-04-23 16:26 | 35.85768 | -114.60052 | 37967 ft | 415 kts | 234° |
| 2026-04-23 16:27 | 35.81903 | -114.65373 | 38018 ft | 417 kts | 234° |
| 2026-04-23 16:27 | 35.78026 | -114.70703 | 38022 ft | 418 kts | 234° |
| 2026-04-23 16:28 | 35.74161 | -114.76006 | 38016 ft | 417 kts | 234° |
| 2026-04-23 16:28 | 35.70280 | -114.81325 | 38062 ft | 417 kts | 234° |
| 2026-04-23 16:29 | 35.66388 | -114.86651 | 38068 ft | 418 kts | 234° |
| 2026-04-23 16:29 | 35.62523 | -114.91948 | 38069 ft | 418 kts | 234° |
| 2026-04-23 16:30 | 35.58636 | -114.97279 | 38063 ft | 418 kts | 234° |
| 2026-04-23 16:30 | 35.54793 | -115.02542 | 38058 ft | 418 kts | 234° |
| 2026-04-23 16:31 | 35.50904 | -115.07856 | 38071 ft | 418 kts | 234° |
| 2026-04-23 16:31 | 35.46933 | -115.13111 | 38073 ft | 420 kts | 233° |
| 2026-04-23 16:32 | 35.42912 | -115.18321 | 38073 ft | 419 kts | 233° |
| 2026-04-23 16:32 | 35.38914 | -115.23510 | 38074 ft | 418 kts | 233° |
| 2026-04-23 16:33 | 35.34927 | -115.28694 | 38073 ft | 417 kts | 233° |
| 2026-04-23 16:33 | 35.30955 | -115.33857 | 38049 ft | 416 kts | 233° |
| 2026-04-23 16:34 | 35.27011 | -115.38978 | 38066 ft | 416 kts | 233° |
| 2026-04-23 16:34 | 35.23031 | -115.44133 | 38074 ft | 416 kts | 233° |
| 2026-04-23 16:35 | 35.19049 | -115.49284 | 38066 ft | 417 kts | 233° |
| 2026-04-23 16:35 | 35.15060 | -115.54439 | 38071 ft | 418 kts | 233° |
| 2026-04-23 16:36 | 35.11057 | -115.59596 | 38072 ft | 417 kts | 232° |
| 2026-04-23 16:36 | 35.07054 | -115.64714 | 38075 ft | 416 kts | 232° |
| 2026-04-23 16:37 | 35.03071 | -115.69798 | 38069 ft | 416 kts | 232° |
| 2026-04-23 16:37 | 34.99066 | -115.74907 | 38073 ft | 417 kts | 232° |
| 2026-04-23 16:38 | 34.95049 | -115.80026 | 38078 ft | 418 kts | 232° |
| 2026-04-23 16:38 | 34.91052 | -115.85113 | 38071 ft | 418 kts | 232° |
| 2026-04-23 16:39 | 34.87019 | -115.90236 | 38067 ft | 419 kts | 232° |
| 2026-04-23 16:39 | 34.82977 | -115.95363 | 38058 ft | 419 kts | 232° |
| 2026-04-23 16:40 | 34.78988 | -116.00416 | 38062 ft | 418 kts | 232° |
| 2026-04-23 16:40 | 34.74964 | -116.05516 | 38069 ft | 417 kts | 232° |
| 2026-04-23 16:41 | 34.70984 | -116.10590 | 38062 ft | 417 kts | 232° |
| 2026-04-23 16:41 | 34.66981 | -116.15688 | 38082 ft | 416 kts | 232° |
| 2026-04-23 16:42 | 34.62971 | -116.20783 | 38081 ft | 415 kts | 232° |
| 2026-04-23 16:42 | 34.60991 | -116.23291 | 37792 ft | 402 kts | 232° |
| 2026-04-23 16:42 | 34.59109 | -116.25662 | 36921 ft | 374 kts | 232° |
| 2026-04-23 16:43 | 34.57313 | -116.27933 | 36237 ft | 372 kts | 232° |
| 2026-04-23 16:43 | 34.55566 | -116.30150 | 35903 ft | 364 kts | 232° |
| 2026-04-23 16:43 | 34.53829 | -116.32352 | 35557 ft | 358 kts | 232° |
| 2026-04-23 16:43 | 34.52119 | -116.34520 | 35132 ft | 354 kts | 232° |
| 2026-04-23 16:44 | 34.50422 | -116.36669 | 34667 ft | 352 kts | 232° |
| 2026-04-23 16:44 | 34.48734 | -116.38806 | 34211 ft | 350 kts | 232° |
| 2026-04-23 16:44 | 34.47056 | -116.40928 | 33704 ft | 347 kts | 232° |
| 2026-04-23 16:44 | 34.45398 | -116.43019 | 33317 ft | 341 kts | 232° |
| 2026-04-23 16:45 | 34.43764 | -116.45077 | 32848 ft | 337 kts | 232° |
| 2026-04-23 16:45 | 34.42158 | -116.47142 | 32296 ft | 335 kts | 236° |
| 2026-04-23 16:45 | 34.40881 | -116.49466 | 31725 ft | 329 kts | 246° |
| 2026-04-23 16:45 | 34.39881 | -116.51906 | 31227 ft | 327 kts | 247° |
| 2026-04-23 16:46 | 34.38891 | -116.54382 | 30755 ft | 325 kts | 247° |
| 2026-04-23 16:46 | 34.37905 | -116.56837 | 30302 ft | 323 kts | 247° |
| 2026-04-23 16:46 | 34.36912 | -116.59282 | 29793 ft | 322 kts | 246° |
| 2026-04-23 16:46 | 34.35919 | -116.61706 | 29272 ft | 321 kts | 246° |
| 2026-04-23 16:47 | 34.34925 | -116.64119 | 28773 ft | 320 kts | 246° |
| 2026-04-23 16:47 | 34.33931 | -116.66525 | 28263 ft | 319 kts | 246° |
| 2026-04-23 16:47 | 34.32945 | -116.68927 | 27783 ft | 318 kts | 247° |
| 2026-04-23 16:47 | 34.31989 | -116.71299 | 27363 ft | 316 kts | 247° |
| 2026-04-23 16:48 | 34.31033 | -116.73683 | 26933 ft | 315 kts | 247° |
| 2026-04-23 16:48 | 34.30080 | -116.76070 | 26477 ft | 316 kts | 247° |
| 2026-04-23 16:48 | 34.29121 | -116.78456 | 26071 ft | 315 kts | 247° |
| 2026-04-23 16:48 | 34.28163 | -116.80831 | 25683 ft | 314 kts | 247° |
| 2026-04-23 16:49 | 34.27529 | -116.82404 | 25424 ft | 313 kts | 247° |
| 2026-04-23 16:49 | 34.26253 | -116.85568 | 24943 ft | 312 kts | 247° |
| 2026-04-23 16:49 | 34.25300 | -116.87930 | 24577 ft | 312 kts | 247° |
| 2026-04-23 16:49 | 34.24347 | -116.90295 | 24204 ft | 313 kts | 247° |
| 2026-04-23 16:50 | 34.23393 | -116.92658 | 23875 ft | 313 kts | 247° |
| 2026-04-23 16:50 | 34.22440 | -116.95013 | 23532 ft | 312 kts | 247° |
| 2026-04-23 16:50 | 34.21488 | -116.97364 | 23174 ft | 310 kts | 247° |
| 2026-04-23 16:50 | 34.20639 | -116.99715 | 22864 ft | 307 kts | 252° |
| 2026-04-23 16:51 | 34.19988 | -117.02104 | 22532 ft | 305 kts | 255° |
| 2026-04-23 16:51 | 34.19369 | -117.04546 | 22027 ft | 303 kts | 255° |
| 2026-04-23 16:51 | 34.18746 | -117.06979 | 21693 ft | 303 kts | 254° |
| 2026-04-23 16:51 | 34.18109 | -117.09398 | 21357 ft | 301 kts | 254° |
| 2026-04-23 16:52 | 34.17682 | -117.10986 | 21172 ft | 300 kts | 254° |
| 2026-04-23 16:52 | 34.17036 | -117.13371 | 20862 ft | 298 kts | 254° |
| 2026-04-23 16:52 | 34.16392 | -117.15740 | 20481 ft | 296 kts | 254° |
| 2026-04-23 16:52 | 34.15745 | -117.18101 | 20094 ft | 296 kts | 253° |
| 2026-04-23 16:53 | 34.15096 | -117.20460 | 19736 ft | 295 kts | 254° |
| 2026-04-23 16:53 | 34.14449 | -117.22808 | 19376 ft | 294 kts | 254° |
| 2026-04-23 16:53 | 34.13805 | -117.25145 | 19017 ft | 292 kts | 254° |
| 2026-04-23 16:53 | 34.13166 | -117.27466 | 18644 ft | 291 kts | 254° |
| 2026-04-23 16:54 | 34.12530 | -117.29776 | 18270 ft | 289 kts | 254° |
| 2026-04-23 16:54 | 34.11895 | -117.32077 | 17838 ft | 288 kts | 254° |
| 2026-04-23 16:54 | 34.11264 | -117.34361 | 17440 ft | 286 kts | 254° |
| 2026-04-23 16:54 | 34.10636 | -117.36634 | 17033 ft | 285 kts | 254° |
| 2026-04-23 16:55 | 34.10041 | -117.38907 | 16616 ft | 283 kts | 256° |
| 2026-04-23 16:55 | 34.09477 | -117.41186 | 16200 ft | 282 kts | 256° |
| 2026-04-23 16:55 | 34.08918 | -117.43447 | 15811 ft | 281 kts | 256° |
| 2026-04-23 16:55 | 34.08357 | -117.45698 | 15434 ft | 280 kts | 256° |
| 2026-04-23 16:56 | 34.07802 | -117.47915 | 15042 ft | 279 kts | 256° |
| 2026-04-23 16:56 | 34.07240 | -117.50152 | 14676 ft | 277 kts | 256° |
| 2026-04-23 16:56 | 34.06675 | -117.52374 | 14304 ft | 276 kts | 256° |
| 2026-04-23 16:56 | 34.06109 | -117.54589 | 13942 ft | 275 kts | 256° |
| 2026-04-23 16:57 | 34.05544 | -117.56798 | 13501 ft | 275 kts | 256° |
| 2026-04-23 16:57 | 34.04980 | -117.59006 | 13061 ft | 275 kts | 256° |
| 2026-04-23 16:57 | 34.04423 | -117.61182 | 12657 ft | 275 kts | 256° |
| 2026-04-23 16:57 | 34.03859 | -117.63390 | 12243 ft | 275 kts | 256° |
| 2026-04-23 16:58 | 34.03293 | -117.65596 | 11830 ft | 276 kts | 256° |
| 2026-04-23 16:58 | 34.02727 | -117.67803 | 11463 ft | 275 kts | 256° |
| 2026-04-23 16:58 | 34.02179 | -117.69984 | 11235 ft | 268 kts | 259° |
| 2026-04-23 16:58 | 34.01879 | -117.72175 | 10988 ft | 262 kts | 266° |
| 2026-04-23 16:59 | 34.01697 | -117.74358 | 10685 ft | 262 kts | 266° |
| 2026-04-23 16:59 | 34.01513 | -117.76546 | 10365 ft | 263 kts | 266° |
| 2026-04-23 16:59 | 34.01324 | -117.78736 | 10021 ft | 263 kts | 266° |
| 2026-04-23 16:59 | 34.01122 | -117.80910 | 9637 ft | 264 kts | 265° |
| 2026-04-23 17:00 | 34.00911 | -117.83113 | 9256 ft | 265 kts | 265° |
| 2026-04-23 17:00 | 34.00700 | -117.85323 | 8897 ft | 266 kts | 265° |
| 2026-04-23 17:00 | 34.00482 | -117.87534 | 8536 ft | 266 kts | 265° |
| 2026-04-23 17:00 | 34.00264 | -117.89755 | 8175 ft | 267 kts | 265° |
| 2026-04-23 17:01 | 34.00048 | -117.91981 | 7828 ft | 268 kts | 265° |
| 2026-04-23 17:01 | 33.99874 | -117.94214 | 7491 ft | 268 kts | 266° |
| 2026-04-23 17:01 | 33.99685 | -117.96457 | 7157 ft | 269 kts | 265° |
| 2026-04-23 17:01 | 33.99468 | -117.98708 | 6810 ft | 270 kts | 264° |
| 2026-04-23 17:02 | 33.99246 | -118.00904 | 6477 ft | 271 kts | 264° |
| 2026-04-23 17:02 | 33.99014 | -118.03154 | 6106 ft | 271 kts | 264° |
| 2026-04-23 17:02 | 33.98783 | -118.05404 | 5741 ft | 271 kts | 264° |
| 2026-04-23 17:02 | 33.98553 | -118.07654 | 5391 ft | 270 kts | 263° |
| 2026-04-23 17:03 | 33.98322 | -118.09907 | 5032 ft | 271 kts | 263° |
| 2026-04-23 17:03 | 33.98090 | -118.12160 | 4671 ft | 271 kts | 263° |
| 2026-04-23 17:03 | 33.97857 | -118.14421 | 4284 ft | 272 kts | 263° |
| 2026-04-23 17:03 | 33.97631 | -118.16626 | 3908 ft | 258 kts | 263° |
| 2026-04-23 17:04 | 33.97423 | -118.18655 | 3581 ft | 232 kts | 263° |
| 2026-04-23 17:04 | 33.97226 | -118.20577 | 3342 ft | 230 kts | 263° |
| 2026-04-23 17:04 | 33.97029 | -118.22492 | 3011 ft | 231 kts | 263° |
| 2026-04-23 17:04 | 33.96841 | -118.24320 | 2685 ft | 208 kts | 263° |
| 2026-04-23 17:05 | 33.96671 | -118.25977 | 2456 ft | 193 kts | 263° |
| 2026-04-23 17:05 | 33.96512 | -118.27527 | 2196 ft | 178 kts | 263° |
| 2026-04-23 17:05 | 33.96368 | -118.28939 | 1947 ft | 162 kts | 262° |
| 2026-04-23 17:05 | 33.96238 | -118.30205 | 1746 ft | 143 kts | 262° |
| 2026-04-23 17:06 | 33.96119 | -118.31358 | 1555 ft | 136 kts | 262° |
| 2026-04-23 17:06 | 33.96002 | -118.32493 | 1380 ft | 137 kts | 262° |
| 2026-04-23 17:06 | 33.95886 | -118.33621 | 1198 ft | 137 kts | 262° |
| 2026-04-23 17:06 | 33.95769 | -118.34765 | 1016 ft | 138 kts | 262° |
| 2026-04-23 17:07 | 33.95651 | -118.35913 | 828 ft | 138 kts | 263° |
| 2026-04-23 17:07 | 33.95532 | -118.37070 | 634 ft | 141 kts | 262° |
| 2026-04-23 17:07 | 33.95407 | -118.38240 | 451 ft | 142 kts | 262° |
| 2026-04-23 17:07 | 33.95288 | -118.39416 | 238 ft | 140 kts | 263° |
| 2026-04-23 17:08 | 33.95170 | -118.40581 | 105 ft | 140 kts | 262° |
| 2026-04-23 17:08 | 33.95056 | -118.41693 | 99 ft | 117 kts | 263° |
| 2026-04-23 17:08 | 33.94987 | -118.42350 | 100 ft | 50 kts | 260° |
| 2026-04-23 17:08 | 33.94879 | -118.42640 | 103 ft | 33 kts | 231° |
| 2026-04-23 17:09 | 33.94715 | -118.42766 | 103 ft | 12 kts | 187° |
| 2026-04-23 17:09 | 33.94641 | -118.42730 | 100 ft | 13 kts | 114° |
| 2026-04-23 17:09 | 33.94643 | -118.42623 | 99 ft | 13 kts | 83° |
| 2026-04-23 17:09 | 33.94659 | -118.42471 | 100 ft | 26 kts | 83° |
| 2026-04-23 17:10 | 33.94680 | -118.42264 | 98 ft | 19 kts | 83° |
| 2026-04-23 17:10 | 33.94701 | -118.42053 | 101 ft | 26 kts | 83° |
| 2026-04-23 17:10 | 33.94724 | -118.41829 | 99 ft | 29 kts | 83° |
| 2026-04-23 17:10 | 33.94742 | -118.41642 | 98 ft | 22 kts | 83° |
| 2026-04-23 17:11 | 33.94763 | -118.41436 | 101 ft | 22 kts | 83° |
| 2026-04-23 17:11 | 33.94783 | -118.41331 | 98 ft | 11 kts | 84° |
| 2026-04-23 17:11 | 33.94747 | -118.41284 | 101 ft | 9 kts | 176° |
| 2026-04-23 17:11 | 33.94679 | -118.41280 | 99 ft | 13 kts | 176° |
| 2026-04-23 17:12 | 33.94572 | -118.41265 | 97 ft | 14 kts | 172° |
| 2026-04-23 17:12 | 33.94479 | -118.41251 | 98 ft | 9 kts | 173° |
| 2026-04-23 17:12 | 33.94419 | -118.41243 | 98 ft | 9 kts | 173° |
| 2026-04-23 17:12 | 33.94358 | -118.41234 | 99 ft | 9 kts | 173° |
| 2026-04-23 17:13 | 33.94298 | -118.41226 | 98 ft | 9 kts | 173° |
| 2026-04-23 17:13 | 33.94238 | -118.41217 | 99 ft | 9 kts | 173° |
| 2026-04-23 17:13 | 33.94184 | -118.41209 | 100 ft | 6 kts | 173° |
| 2026-04-23 17:13 | 33.94142 | -118.41203 | 98 ft | 6 kts | 173° |
| 2026-04-23 17:14 | 33.94105 | -118.41194 | 99 ft | 5 kts | 155° |
| 2026-04-23 17:14 | 33.94093 | -118.41158 | 101 ft | 5 kts | 90° |
| 2026-04-23 17:14 | 33.94096 | -118.41115 | 99 ft | 5 kts | 83° |
| 2026-04-23 17:14 | 33.94099 | -118.41085 | 99 ft | 3 kts | 83° |
| 2026-04-23 17:15 | 33.94100 | -118.41074 | 99 ft | 1 kts | 83° |